Time;durP1;ratioP1;P1;durP2;ratioP2;P2;SDS_P1;SDS_P2;PMS_P1;PMS_P2;Temp;Humidity;BMP_temperature;BMP_pressure;BME280_temperature;BME280_humidity;BME280_pressure;Samples;Min_cycle;Max_cycle;Signal;HPM_P1;HPM_P2
2023/05/28 00:02:33;;;;;;;7.93;2.90;;;;;;;;;;10301524;28;20051;-80
2023/05/28 00:07:36;;;;;;;6.72;2.85;;;;;;;;;;10304590;28;20042;-80
2023/05/28 00:12:40;;;;;;;10.57;3.38;;;;;;;;;;10301219;28;20045;-79
2023/05/28 00:17:42;;;;;;;7.32;2.45;;;;;;;;;;10297542;28;20085;-79
2023/05/28 00:22:45;;;;;;;8.23;2.70;;;;;;;;;;10301575;28;20118;-80
2023/05/28 00:27:49;;;;;;;10.48;3.10;;;;;;;;;;10300712;28;20129;-81
2023/05/28 00:32:52;;;;;;;7.90;3.03;;;;;;;;;;10309838;28;20037;-80
2023/05/28 00:37:55;;;;;;;12.43;2.78;;;;;;;;;;10301664;28;20564;-79
2023/05/28 00:42:59;;;;;;;6.10;2.45;;;;;;;;;;10286755;28;20038;-80
2023/05/28 00:48:01;;;;;;;7.68;2.60;;;;;;;;;;10298463;28;20066;-80
2023/05/28 00:53:05;;;;;;;5.60;2.40;;;;;;;;;;10376512;28;20131;-80
2023/05/28 00:58:10;;;;;;;9.15;2.78;;;;;;;;;;10375319;28;20042;-78
2023/05/28 01:03:13;;;;;;;10.50;2.85;;;;;;;;;;10367328;28;20028;-79
2023/05/28 01:08:16;;;;;;;6.07;2.67;;;;;;;;;;10363456;28;20057;-79
2023/05/28 01:13:20;;;;;;;9.00;2.72;;;;;;;;;;10351936;28;20038;-79
2023/05/28 01:18:24;;;;;;;8.73;2.70;;;;;;;;;;10408319;28;20048;-79
2023/05/28 01:23:26;;;;;;;;;;;;;;;;;;10355901;28;20046;-78
2023/05/28 01:28:31;;;;;;;8.73;2.47;;;;;;;;;;10376397;28;20176;-78
2023/05/28 01:33:33;;;;;;;6.80;3.13;;;;;;;;;;10344523;28;20057;-79
2023/05/28 01:38:37;;;;;;;7.97;3.10;;;;;;;;;;10353717;28;20048;-77
2023/05/28 01:43:42;;;;;;;6.97;2.80;;;;;;;;;;10335257;28;20429;-77
2023/05/28 01:48:45;;;;;;;7.30;2.60;;;;;;;;;;10333548;28;20483;-78
2023/05/28 01:53:47;;;;;;;15.87;2.90;;;;;;;;;;10338945;28;20042;-78
2023/05/28 01:58:51;;;;;;;12.63;3.05;;;;;;;;;;10340100;28;20361;-78
2023/05/28 02:03:54;;;;;;;;;;;;;;;;;;10377351;28;20461;-78
2023/05/28 02:08:56;;;;;;;6.32;2.65;;;;;;;;;;10342498;28;19929;-78
2023/05/28 02:14:01;;;;;;;9.07;2.63;;;;;;;;;;10340660;28;20049;-79
2023/05/28 02:19:04;;;;;;;7.95;3.00;;;;;;;;;;10348054;28;20604;-78
2023/05/28 02:24:07;;;;;;;12.17;3.53;;;;;;;;;;10344469;28;20069;-79
2023/05/28 02:29:11;;;;;;;10.13;3.10;;;;;;;;;;10349723;28;20041;-78
2023/05/28 02:34:14;;;;;;;;;;;;;;;;;;10350451;28;20095;-78
2023/05/28 02:39:17;;;;;;;10.52;2.80;;;;;;;;;;10353891;28;19921;-78
2023/05/28 02:44:22;;;;;;;7.82;2.63;;;;;;;;;;10351708;28;20513;-78
2023/05/28 02:49:25;;;;;;;10.07;3.13;;;;;;;;;;10354369;28;20082;-78
2023/05/28 02:54:28;;;;;;;7.60;3.00;;;;;;;;;;10349553;28;20037;-79
2023/05/28 02:59:32;;;;;;;5.53;2.60;;;;;;;;;;10348499;28;20129;-78
2023/05/28 03:04:35;;;;;;;;;;;;;;;;;;10351145;28;20058;-78
2023/05/28 03:09:38;;;;;;;9.80;2.38;;;;;;;;;;10353604;28;20007;-78
2023/05/28 03:14:42;;;;;;;9.68;2.83;;;;;;;;;;10368016;28;20052;-77
2023/05/28 03:19:45;;;;;;;12.13;3.50;;;;;;;;;;10378689;28;20138;-78
2023/05/28 03:24:48;;;;;;;15.13;3.15;;;;;;;;;;10384528;28;20053;-78
2023/05/28 03:29:52;;;;;;;10.68;2.97;;;;;;;;;;10365122;28;20049;-78
2023/05/28 03:34:54;;;;;;;11.25;3.22;;;;;;;;;;10368648;28;20037;-78
2023/05/28 03:39:59;;;;;;;7.22;2.53;;;;;;;;;;10401792;28;20125;-79
2023/05/28 03:45:04;;;;;;;8.35;2.40;;;;;;;;;;10364093;28;20479;-77
2023/05/28 03:50:07;;;;;;;7.03;2.72;;;;;;;;;;10378035;28;20133;-78
2023/05/28 03:55:10;;;;;;;7.13;2.73;;;;;;;;;;10341684;28;20034;-76
2023/05/28 04:00:16;;;;;;;9.73;3.80;;;;;;;;;;10343907;28;20049;-79
2023/05/28 04:05:18;;;;;;;6.85;2.90;;;;;;;;;;10347666;28;20160;-79
2023/05/28 04:10:21;;;;;;;10.50;3.22;;;;;;;;;;10353332;28;20066;-79
2023/05/28 04:15:25;;;;;;;9.48;2.80;;;;;;;;;;10347586;28;20400;-78
2023/05/28 04:20:29;;;;;;;11.25;3.45;;;;;;;;;;10345834;28;20118;-78
2023/05/28 04:25:32;;;;;;;;;;;;;;;;;;10348375;28;20065;-80
2023/05/28 04:30:36;;;;;;;6.43;2.33;;;;;;;;;;10348104;28;19924;-80
2023/05/28 04:35:38;;;;;;;;;;;;;;;;;;10358445;28;20045;-78
2023/05/28 04:40:41;;;;;;;7.95;2.58;;;;;;;;;;10334026;28;19928;-77
2023/05/28 04:45:45;;;;;;;9.40;3.00;;;;;;;;;;10347629;28;20038;-78
2023/05/28 04:50:50;;;;;;;;;;;;;;;;;;10349964;28;20129;-78
2023/05/28 04:55:53;;;;;;;7.68;2.80;;;;;;;;;;10344313;28;19929;-79
2023/05/28 05:00:57;;;;;;;14.48;3.00;;;;;;;;;;10354853;28;20676;-79
2023/05/28 05:06:00;;;;;;;9.18;3.00;;;;;;;;;;10350994;28;20038;-80
2023/05/28 05:11:04;;;;;;;10.57;3.28;;;;;;;;;;10355150;28;20449;-77
2023/05/28 05:16:08;;;;;;;9.68;2.78;;;;;;;;;;10350602;28;20034;-78
2023/05/28 05:21:12;;;;;;;;;;;;;;;;;;10346947;28;20049;-77
2023/05/28 05:26:16;;;;;;;;;;;;;;;;;;10364583;28;19921;-78
2023/05/28 05:31:21;;;;;;;8.68;3.05;;;;;;;;;;10363880;28;19926;-78
2023/05/28 05:36:23;;;;;;;7.88;2.72;;;;;;;;;;10338883;28;20042;-78
2023/05/28 05:41:26;;;;;;;10.02;2.40;;;;;;;;;;10351045;28;20500;-80
2023/05/28 05:46:30;;;;;;;8.18;2.50;;;;;;;;;;10341165;28;20046;-78
2023/05/28 05:51:33;;;;;;;8.60;2.47;;;;;;;;;;10338116;28;20054;-79
2023/05/28 05:56:36;;;;;;;7.88;2.22;;;;;;;;;;10348830;28;20174;-79
2023/05/28 06:01:40;;;;;;;9.45;3.13;;;;;;;;;;10325476;28;20132;-79
2023/05/28 06:06:44;;;;;;;6.40;2.40;;;;;;;;;;10339706;28;20704;-78
2023/05/28 06:11:47;;;;;;;8.93;3.10;;;;;;;;;;10349893;28;20508;-79
2023/05/28 06:16:51;;;;;;;4.85;2.00;;;;;;;;;;10339069;28;20377;-78
2023/05/28 06:21:54;;;;;;;11.15;2.55;;;;;;;;;;10344631;28;20062;-77
2023/05/28 06:26:57;;;;;;;7.47;2.70;;;;;;;;;;10346227;28;20405;-78
2023/05/28 06:32:01;;;;;;;3.27;1.67;;;;;;;;;;10338934;28;20061;-78
2023/05/28 06:37:04;;;;;;;6.15;2.40;;;;;;;;;;10351366;28;20077;-80
2023/05/28 06:42:07;;;;;;;9.07;2.70;;;;;;;;;;10339227;28;20048;-78
2023/05/28 06:47:11;;;;;;;10.00;3.00;;;;;;;;;;10348807;28;20046;-78
2023/05/28 06:52:13;;;;;;;8.93;3.00;;;;;;;;;;10316762;28;20355;-78
2023/05/28 06:57:16;;;;;;;8.35;3.10;;;;;;;;;;10337513;28;20037;-78
2023/05/28 07:02:20;;;;;;;9.15;2.90;;;;;;;;;;10346712;28;20041;-79
2023/05/28 07:07:23;;;;;;;8.73;2.67;;;;;;;;;;10352744;28;20030;-78
2023/05/28 07:12:26;;;;;;;10.32;2.58;;;;;;;;;;10336908;28;20044;-78
2023/05/28 07:17:30;;;;;;;13.55;3.38;;;;;;;;;;10341120;28;20050;-79
2023/05/28 07:22:33;;;;;;;7.25;3.10;;;;;;;;;;10323482;28;20054;-79
2023/05/28 07:27:35;;;;;;;11.55;3.15;;;;;;;;;;10345439;28;20093;-79
2023/05/28 07:32:39;;;;;;;9.88;2.67;;;;;;;;;;10334865;28;20043;-79
2023/05/28 07:37:42;;;;;;;9.98;2.80;;;;;;;;;;10326361;28;20516;-79
2023/05/28 07:42:45;;;;;;;9.10;2.85;;;;;;;;;;10333137;28;20058;-79
2023/05/28 07:47:52;;;;;;;9.35;2.78;;;;;;;;;;10341569;28;20042;-78
2023/05/28 07:52:55;;;;;;;7.38;3.03;;;;;;;;;;10346029;28;20067;-78
2023/05/28 07:57:58;;;;;;;;;;;;;;;;;;10345055;28;20145;-79
2023/05/28 08:03:01;;;;;;;;;;;;;;;;;;10330247;28;19972;-77
2023/05/28 08:08:03;;;;;;;;;;;;;;;;;;10326256;28;19921;-79
2023/05/28 08:13:07;;;;;;;10.50;3.17;;;;;;;;;;10328775;28;19976;-79
2023/05/28 08:18:10;;;;;;;8.82;3.38;;;;;;;;;;10346708;28;20056;-79
2023/05/28 08:23:13;;;;;;;7.80;4.00;;;;;;;;;;10340854;28;20041;-79
2023/05/28 08:28:18;;;;;;;10.18;4.32;;;;;;;;;;10337032;28;20115;-79
2023/05/28 08:33:21;;;;;;;8.15;3.83;;;;;;;;;;10341593;28;20065;-80
2023/05/28 08:38:23;;;;;;;10.35;3.92;;;;;;;;;;10351981;28;20627;-81
2023/05/28 08:43:28;;;;;;;6.95;3.75;;;;;;;;;;10354084;28;20048;-80
2023/05/28 08:48:32;;;;;;;8.00;3.83;;;;;;;;;;10379794;28;20137;-81
2023/05/28 08:53:38;;;;;;;9.32;3.85;;;;;;;;;;10351778;28;20046;-79
2023/05/28 08:58:43;;;;;;;7.72;3.63;;;;;;;;;;10381097;28;20574;-81
2023/05/28 09:03:46;;;;;;;6.70;3.83;;;;;;;;;;10376434;28;20065;-79
2023/05/28 09:08:49;;;;;;;9.35;3.63;;;;;;;;;;10359339;28;20054;-79
2023/05/28 09:13:53;;;;;;;7.93;4.07;;;;;;;;;;10342113;28;20034;-81
2023/05/28 09:19:03;;;;;;;8.05;4.20;;;;;;;;;;10334496;28;20052;-79
2023/05/28 09:24:06;;;;;;;7.80;4.05;;;;;;;;;;10343154;28;20459;-82
2023/05/28 09:29:13;;;;;;;7.22;3.90;;;;;;;;;;10348567;28;20057;-82
2023/05/28 09:34:18;;;;;;;6.67;4.03;;;;;;;;;;10345814;28;20403;-79
2023/05/28 09:39:24;;;;;;;8.63;4.78;;;;;;;;;;10329369;28;20045;-80
2023/05/28 09:44:30;;;;;;;7.80;4.68;;;;;;;;;;10338029;28;20121;-80
2023/05/28 09:49:32;;;;;;;7.38;4.40;;;;;;;;;;10333542;28;20484;-80
2023/05/28 09:54:35;;;;;;;8.02;4.30;;;;;;;;;;10342119;28;20125;-81
2023/05/28 09:59:39;;;;;;;6.28;3.90;;;;;;;;;;10327197;28;20061;-81
2023/05/28 10:04:43;;;;;;;5.88;3.97;;;;;;;;;;10331806;28;20500;-81
2023/05/28 10:09:46;;;;;;;8.20;4.45;;;;;;;;;;10339455;28;20084;-79
2023/05/28 10:14:50;;;;;;;8.20;4.25;;;;;;;;;;10335249;28;20126;-83
2023/05/28 10:19:52;;;;;;;6.65;4.10;;;;;;;;;;10340602;28;20672;-82
2023/05/28 10:24:55;;;;;;;8.18;4.30;;;;;;;;;;10338815;28;20065;-82
2023/05/28 10:30:03;;;;;;;6.45;3.75;;;;;;;;;;10329070;28;20366;-83
2023/05/28 10:35:06;;;;;;;8.93;4.30;;;;;;;;;;10326735;28;20034;-82
2023/05/28 10:40:10;;;;;;;7.43;4.00;;;;;;;;;;10320627;28;20401;-82
2023/05/28 10:45:14;;;;;;;7.15;4.00;;;;;;;;;;10333538;28;20053;-81
2023/05/28 10:50:17;;;;;;;7.15;3.97;;;;;;;;;;10340403;28;20539;-81
2023/05/28 10:55:22;;;;;;;6.28;3.75;;;;;;;;;;10344515;28;20041;-82
2023/05/28 11:00:26;;;;;;;6.32;3.60;;;;;;;;;;10342179;28;20501;-82
2023/05/28 11:05:29;;;;;;;7.03;3.83;;;;;;;;;;10334146;28;20571;-81
2023/05/28 11:10:32;;;;;;;5.82;3.72;;;;;;;;;;10338460;28;20177;-80
2023/05/28 11:15:40;;;;;;;8.98;3.75;;;;;;;;;;10343457;28;20109;-81
2023/05/28 11:20:43;;;;;;;7.27;3.93;;;;;;;;;;10342502;28;20114;-81
2023/05/28 11:25:46;;;;;;;6.03;3.75;;;;;;;;;;10341732;28;20405;-80
2023/05/28 11:30:52;;;;;;;6.85;3.92;;;;;;;;;;10347830;28;20445;-81
2023/05/28 11:35:59;;;;;;;10.40;4.03;;;;;;;;;;10345689;28;20111;-81
2023/05/28 11:41:02;;;;;;;6.03;3.47;;;;;;;;;;10332539;28;20053;-80
2023/05/28 11:46:06;;;;;;;8.15;4.43;;;;;;;;;;10340826;28;20039;-80
2023/05/28 11:51:10;;;;;;;9.38;3.85;;;;;;;;;;10339899;28;20042;-81
2023/05/28 11:56:13;;;;;;;5.57;3.65;;;;;;;;;;10343491;28;20425;-81
2023/05/28 12:01:17;;;;;;;6.95;3.50;;;;;;;;;;10373452;28;20036;-81
2023/05/28 12:06:20;;;;;;;6.63;3.38;;;;;;;;;;10341182;28;20048;-81
2023/05/28 12:11:41;;;;;;;7.50;3.20;;;;;;;;;;10347907;28;20054;-80
2023/05/28 12:16:47;;;;;;;7.78;3.55;;;;;;;;;;10345567;28;20050;-80
2023/05/28 12:21:50;;;;;;;5.72;3.20;;;;;;;;;;10339356;28;20057;-80
2023/05/28 12:26:53;;;;;;;7.10;3.22;;;;;;;;;;10338856;28;20065;-80
2023/05/28 12:32:00;;;;;;;8.43;3.17;;;;;;;;;;10341889;28;20052;-79
2023/05/28 12:37:03;;;;;;;7.93;3.15;;;;;;;;;;10353705;28;20042;-79
2023/05/28 12:42:07;;;;;;;6.05;3.20;;;;;;;;;;10339670;28;20098;-80
2023/05/28 12:47:11;;;;;;;5.68;2.80;;;;;;;;;;10425123;28;20408;-80
2023/05/28 12:52:14;;;;;;;10.98;3.22;;;;;;;;;;10345286;28;20049;-79
2023/05/28 12:57:17;;;;;;;7.70;3.40;;;;;;;;;;10357435;28;20030;-80
2023/05/28 13:02:21;;;;;;;9.95;3.80;;;;;;;;;;10350510;28;20203;-80
2023/05/28 13:07:23;;;;;;;12.57;3.50;;;;;;;;;;10355499;28;20065;-81
2023/05/28 13:12:26;;;;;;;6.82;2.90;;;;;;;;;;10352162;28;20074;-81
2023/05/28 13:17:30;;;;;;;4.68;2.47;;;;;;;;;;10348895;28;20492;-80
2023/05/28 13:22:35;;;;;;;8.15;3.80;;;;;;;;;;10349336;28;20042;-80
2023/05/28 13:27:38;;;;;;;5.78;3.00;;;;;;;;;;10351010;28;20049;-80
2023/05/28 13:32:42;;;;;;;6.20;3.13;;;;;;;;;;10390262;28;20857;-79
2023/05/28 13:37:44;;;;;;;7.07;2.72;;;;;;;;;;10351045;28;20488;-80
2023/05/28 13:42:49;;;;;;;7.88;3.38;;;;;;;;;;10411456;28;20048;-80
2023/05/28 13:47:53;;;;;;;12.88;3.63;;;;;;;;;;10388562;28;20098;-80
2023/05/28 13:52:57;;;;;;;8.65;3.75;;;;;;;;;;10348832;28;20046;-83
2023/05/28 13:57:59;;;;;;;10.15;3.85;;;;;;;;;;10349352;28;20034;-81
2023/05/28 14:03:04;;;;;;;10.15;3.30;;;;;;;;;;10386927;28;20516;-81
2023/05/28 14:08:06;;;;;;;7.53;3.53;;;;;;;;;;10344307;28;20424;-82
2023/05/28 14:13:09;;;;;;;10.95;4.00;;;;;;;;;;10347378;28;20038;-82
2023/05/28 14:18:13;;;;;;;6.75;3.50;;;;;;;;;;10344285;28;20458;-81
2023/05/28 14:23:16;;;;;;;13.07;3.88;;;;;;;;;;10353160;28;20092;-80
2023/05/28 14:28:19;;;;;;;7.93;3.70;;;;;;;;;;10344319;28;20038;-81
2023/05/28 14:33:28;;;;;;;8.70;3.70;;;;;;;;;;10350531;28;20042;-81
2023/05/28 14:38:31;;;;;;;9.73;3.88;;;;;;;;;;10361874;28;20069;-84
2023/05/28 14:43:33;;;;;;;9.18;4.00;;;;;;;;;;10354137;28;20054;-81
2023/05/28 14:48:37;;;;;;;8.68;3.28;;;;;;;;;;10358311;28;20041;-81
2023/05/28 14:53:40;;;;;;;7.45;3.45;;;;;;;;;;10380454;28;20154;-81
2023/05/28 14:58:43;;;;;;;5.35;2.67;;;;;;;;;;10347749;28;20077;-81
2023/05/28 15:03:47;;;;;;;8.10;3.40;;;;;;;;;;10384154;28;20047;-80
2023/05/28 15:08:51;;;;;;;8.02;3.45;;;;;;;;;;10334874;28;20041;-82
2023/05/28 15:13:54;;;;;;;7.32;3.33;;;;;;;;;;10344541;28;20507;-82
2023/05/28 15:19:00;;;;;;;8.05;3.25;;;;;;;;;;10351700;28;20091;-80
2023/05/28 15:24:03;;;;;;;4.03;2.15;;;;;;;;;;10356328;28;20045;-81
2023/05/28 15:29:06;;;;;;;6.95;3.25;;;;;;;;;;10358500;28;20042;-80
2023/05/28 15:34:10;;;;;;;9.30;4.00;;;;;;;;;;10355235;28;20098;-75
2023/05/28 15:39:13;;;;;;;7.88;3.30;;;;;;;;;;10350824;28;20612;-76
2023/05/28 15:44:16;;;;;;;10.27;4.10;;;;;;;;;;10350417;28;20053;-74
2023/05/28 15:49:20;;;;;;;8.05;3.22;;;;;;;;;;10356599;28;20094;-76
2023/05/28 15:54:23;;;;;;;7.68;2.97;;;;;;;;;;10352842;28;20289;-75
2023/05/28 15:59:30;;;;;;;;;;;;;;;;;;10340520;28;20381;-79
2023/05/28 16:04:35;;;;;;;7.55;3.25;;;;;;;;;;10333398;28;19921;-80
2023/05/28 16:09:38;;;;;;;8.90;3.20;;;;;;;;;;10340505;28;20066;-77
2023/05/28 16:14:43;;;;;;;6.88;3.10;;;;;;;;;;10339785;28;20175;-76
2023/05/28 16:19:47;;;;;;;8.45;3.65;;;;;;;;;;10351484;28;20114;-76
2023/05/28 16:24:50;;;;;;;9.52;3.63;;;;;;;;;;10354500;28;20140;-77
2023/05/28 16:29:53;;;;;;;11.30;3.70;;;;;;;;;;10358314;28;20038;-77
2023/05/28 16:34:58;;;;;;;12.18;3.70;;;;;;;;;;10365637;28;20056;-78
2023/05/28 16:40:01;;;;;;;9.90;3.33;;;;;;;;;;10356868;28;20045;-75
2023/05/28 16:45:04;;;;;;;8.90;4.13;;;;;;;;;;10354056;28;20069;-76
2023/05/28 16:50:07;;;;;;;;;;;;;;;;;;10351742;28;20069;-76
2023/05/28 16:55:11;;;;;;;7.43;3.93;;;;;;;;;;10351931;28;20000;-77
2023/05/28 17:00:20;;;;;;;7.93;3.80;;;;;;;;;;10348698;28;20068;-78
2023/05/28 17:05:22;;;;;;;9.00;3.92;;;;;;;;;;10351448;28;20053;-77
2023/05/28 17:10:26;;;;;;;9.18;3.53;;;;;;;;;;10354041;28;20175;-77
2023/05/28 17:15:29;;;;;;;11.13;3.95;;;;;;;;;;10352005;28;20046;-76
2023/05/28 17:20:36;;;;;;;;;;;;;;;;;;10350258;28;20124;-76
2023/05/28 17:25:40;;;;;;;8.32;3.40;;;;;;;;;;10346705;28;19944;-75
2023/05/28 17:30:43;;;;;;;9.15;3.85;;;;;;;;;;10356428;28;20073;-77
2023/05/28 17:35:47;;;;;;;11.95;4.18;;;;;;;;;;10350439;28;20058;-78
2023/05/28 17:40:51;;;;;;;10.13;3.95;;;;;;;;;;10347909;28;20052;-77
2023/05/28 17:45:55;;;;;;;9.13;4.07;;;;;;;;;;10352791;28;20056;-76
2023/05/28 17:50:59;;;;;;;9.68;4.20;;;;;;;;;;10347909;28;20052;-79
2023/05/28 17:56:03;;;;;;;9.52;3.75;;;;;;;;;;10347877;28;20393;-78
2023/05/28 18:01:06;;;;;;;11.93;4.07;;;;;;;;;;10350703;28;20038;-78
2023/05/28 18:06:10;;;;;;;9.10;4.80;;;;;;;;;;10353042;28;20050;-79
2023/05/28 18:11:15;;;;;;;11.50;4.00;;;;;;;;;;10359094;28;20070;-79
2023/05/28 18:16:19;;;;;;;10.88;4.82;;;;;;;;;;10366111;28;20049;-79
2023/05/28 18:21:22;;;;;;;10.80;4.10;;;;;;;;;;10361417;28;20077;-79
2023/05/28 18:26:27;;;;;;;11.90;5.13;;;;;;;;;;10339172;28;20068;-81
2023/05/28 18:31:30;;;;;;;10.85;4.30;;;;;;;;;;10358222;28;20045;-78
2023/05/28 18:36:34;;;;;;;;;;;;;;;;;;10364805;28;20062;-78
2023/05/28 18:41:37;;;;;;;;;;;;;;;;;;10357404;28;19926;-78
2023/05/28 18:46:41;;;;;;;9.57;3.90;;;;;;;;;;10352509;28;19937;-78
2023/05/28 18:51:45;;;;;;;10.75;4.38;;;;;;;;;;10365825;28;20080;-79
2023/05/28 18:56:48;;;;;;;8.90;3.88;;;;;;;;;;10356059;28;20743;-79
2023/05/28 19:01:52;;;;;;;10.43;4.13;;;;;;;;;;10333665;28;20065;-77
2023/05/28 19:06:56;;;;;;;11.23;4.90;;;;;;;;;;10343143;28;20620;-79
2023/05/28 19:11:59;;;;;;;9.98;3.80;;;;;;;;;;10353440;28;20066;-78
2023/05/28 19:17:04;;;;;;;13.00;4.93;;;;;;;;;;10357040;28;20045;-78
2023/05/28 19:22:07;;;;;;;12.30;4.22;;;;;;;;;;10346329;28;20163;-79
2023/05/28 19:27:09;;;;;;;9.68;3.85;;;;;;;;;;10339109;28;20129;-79
2023/05/28 19:32:14;;;;;;;13.87;4.77;;;;;;;;;;10353294;28;20324;-78
2023/05/28 19:37:17;;;;;;;11.57;4.15;;;;;;;;;;10360479;28;20042;-80
2023/05/28 19:42:20;;;;;;;15.57;5.70;;;;;;;;;;10354554;28;20123;-78
2023/05/28 19:47:24;;;;;;;14.50;4.80;;;;;;;;;;10373201;28;20123;-79
2023/05/28 19:52:28;;;;;;;14.30;4.32;;;;;;;;;;10354643;28;20041;-79
2023/05/28 19:57:31;;;;;;;10.98;4.47;;;;;;;;;;10392690;28;20441;-79
2023/05/28 20:02:36;;;;;;;12.18;4.32;;;;;;;;;;10371615;28;20693;-78
2023/05/28 20:07:40;;;;;;;10.63;4.65;;;;;;;;;;10373860;28;20044;-78
2023/05/28 20:12:43;;;;;;;11.40;4.93;;;;;;;;;;10427149;28;20046;-78
2023/05/28 20:17:48;;;;;;;14.67;5.53;;;;;;;;;;10351147;28;20456;-78
2023/05/28 20:22:52;;;;;;;13.27;5.10;;;;;;;;;;10355125;28;20156;-77
2023/05/28 20:27:55;;;;;;;14.73;4.63;;;;;;;;;;10353178;28;21755;-76
2023/05/28 20:32:59;;;;;;;12.40;4.70;;;;;;;;;;10353978;28;20128;-76
2023/05/28 20:38:02;;;;;;;14.25;5.18;;;;;;;;;;10389153;28;20046;-76
2023/05/28 20:43:05;;;;;;;12.18;4.88;;;;;;;;;;10387226;28;20042;-76
2023/05/28 20:48:09;;;;;;;11.60;4.93;;;;;;;;;;10370066;28;20038;-78
2023/05/28 20:53:11;;;;;;;18.70;6.95;;;;;;;;;;10380226;28;20500;-76
2023/05/28 20:58:14;;;;;;;19.45;7.22;;;;;;;;;;10355364;28;20546;-76
2023/05/28 21:03:36;;;;;;;13.18;4.95;;;;;;;;;;10350999;28;20377;-74
2023/05/28 21:08:38;;;;;;;14.43;5.07;;;;;;;;;;10352297;28;20456;-74
2023/05/28 21:13:41;;;;;;;15.55;5.30;;;;;;;;;;10354128;28;20050;-80
2023/05/28 21:18:45;;;;;;;12.75;4.63;;;;;;;;;;10388774;28;20128;-78
2023/05/28 21:23:48;;;;;;;10.00;4.57;;;;;;;;;;10352278;28;20038;-78
2023/05/28 21:28:50;;;;;;;12.23;4.30;;;;;;;;;;10359575;28;20351;-79
2023/05/28 21:33:58;;;;;;;12.65;4.70;;;;;;;;;;10352433;28;20046;-81
2023/05/28 21:39:02;;;;;;;35.00;14.68;;;;;;;;;;10366139;28;20044;-79
2023/05/28 21:44:09;;;;;;;12.90;5.57;;;;;;;;;;10355163;28;20129;-78
2023/05/28 21:49:43;;;;;;;15.30;5.38;;;;;;;;;;10397019;28;20146;-77
2023/05/28 21:55:07;;;;;;;11.95;4.65;;;;;;;;;;10351901;28;20038;-77
2023/05/28 22:00:27;;;;;;;12.95;4.95;;;;;;;;;;10384519;28;20042;-77
2023/05/28 22:05:39;;;;;;;13.80;4.68;;;;;;;;;;10432414;28;20050;-78
2023/05/28 22:10:51;;;;;;;22.73;8.50;;;;;;;;;;10418407;28;20145;-78
2023/05/28 22:15:57;;;;;;;13.02;4.45;;;;;;;;;;10440670;28;20055;-77
2023/05/28 22:21:03;;;;;;;12.00;4.65;;;;;;;;;;10373496;28;20477;-77
2023/05/28 22:26:26;;;;;;;11.75;5.30;;;;;;;;;;10338371;28;20484;-79
2023/05/28 22:31:37;;;;;;;16.42;5.35;;;;;;;;;;10368335;28;20068;-78
2023/05/28 22:36:46;;;;;;;16.80;5.22;;;;;;;;;;10329833;28;20111;-78
2023/05/28 22:41:55;;;;;;;10.23;4.60;;;;;;;;;;10349744;28;20044;-78
2023/05/28 22:47:07;;;;;;;16.70;5.13;;;;;;;;;;10348072;28;20046;-77
2023/05/28 22:52:11;;;;;;;15.60;6.28;;;;;;;;;;10362809;28;20106;-79
2023/05/28 22:57:19;;;;;;;12.65;4.70;;;;;;;;;;10337003;28;20046;-78
2023/05/28 23:02:36;;;;;;;12.25;4.70;;;;;;;;;;10349291;28;20045;-77
2023/05/28 23:07:44;;;;;;;13.70;4.97;;;;;;;;;;10367226;28;20360;-78
2023/05/28 23:12:51;;;;;;;12.10;4.70;;;;;;;;;;10412498;28;20442;-78
2023/05/28 23:17:59;;;;;;;12.98;4.43;;;;;;;;;;10430535;28;20040;-79
2023/05/28 23:23:05;;;;;;;15.45;4.38;;;;;;;;;;10352987;28;20053;-77
2023/05/28 23:28:11;;;;;;;15.43;4.70;;;;;;;;;;10369950;28;20650;-78
2023/05/28 23:33:19;;;;;;;10.85;4.88;;;;;;;;;;10337842;28;20133;-76
2023/05/28 23:38:28;;;;;;;12.65;4.30;;;;;;;;;;10327418;28;20125;-78
2023/05/28 23:43:45;;;;;;;11.13;4.75;;;;;;;;;;10340186;28;20041;-77
2023/05/28 23:48:53;;;;;;;12.05;4.18;;;;;;;;;;10426503;28;20095;-79
2023/05/28 23:54:02;;;;;;;14.95;4.53;;;;;;;;;;10326107;28;20054;-77
2023/05/28 23:59:10;;;;;;;10.95;4.53;;;;;;;;;;10321702;28;20062;-78
